Time;durP1;ratioP1;P1;durP2;ratioP2;P2;SDS_P1;SDS_P2;PMS_P1;PMS_P2;Temp;Humidity;BMP_temperature;BMP_pressure;BME280_temperature;BME280_humidity;BME280_pressure;Samples;Min_cycle;Max_cycle;Signal;HPM_P1;HPM_P2
2021/04/12 00:00:27;;;;;;;4.70;2.28;;;2.30;99.90;;;;;;5051518;28;20045;-58
2021/04/12 00:03:30;;;;;;;6.35;2.40;;;2.30;99.90;;;;;;5042972;28;20024;-59
2021/04/12 00:06:08;;;;;;;5.45;2.50;;;2.20;99.90;;;;;;5036376;28;21576;-59
2021/04/12 00:08:46;;;;;;;3.47;2.35;;;2.20;99.90;;;;;;5049840;28;20369;-58
2021/04/12 00:11:42;;;;;;;7.13;2.90;;;2.10;99.90;;;;;;5041230;28;20048;-58
2021/04/12 00:14:18;;;;;;;4.72;2.45;;;2.10;99.90;;;;;;5042708;28;20475;-59
2021/04/12 00:17:07;;;;;;;4.40;2.30;;;2.10;99.90;;;;;;5045044;28;20051;-58
2021/04/12 00:19:51;;;;;;;5.85;2.50;;;2.10;99.90;;;;;;5052529;28;20111;-58
2021/04/12 00:22:30;;;;;;;4.70;2.65;;;2.00;99.90;;;;;;5045398;28;20107;-59
2021/04/12 00:25:12;;;;;;;5.55;2.50;;;2.00;99.90;;;;;;5052209;28;20123;-59
2021/04/12 00:27:47;;;;;;;7.70;2.97;;;2.00;99.90;;;;;;5052184;28;20032;-59
2021/04/12 00:30:51;;;;;;;5.32;2.47;;;2.00;99.90;;;;;;5052174;28;20029;-58
2021/04/12 00:33:52;;;;;;;3.85;2.65;;;2.00;99.90;;;;;;5039523;28;20052;-59
2021/04/12 00:36:32;;;;;;;4.10;2.42;;;2.00;99.90;;;;;;5032011;28;20479;-58
2021/04/12 00:39:28;;;;;;;4.00;2.20;;;1.90;99.90;;;;;;5053059;28;20060;-61
2021/04/12 00:42:08;;;;;;;3.05;2.38;;;1.90;99.90;;;;;;5042629;28;20048;-58
2021/04/12 00:44:53;;;;;;;5.57;2.80;;;1.80;99.90;;;;;;5050489;28;20051;-60
2021/04/12 00:47:56;;;;;;;4.45;2.63;;;1.80;99.90;;;;;;5052570;28;20491;-60
2021/04/12 00:50:29;;;;;;;5.65;2.55;;;1.80;99.90;;;;;;5051025;28;20186;-58
2021/04/12 00:53:29;;;;;;;4.45;2.72;;;1.70;99.90;;;;;;5052565;28;20475;-61
2021/04/12 00:56:00;;;;;;;5.07;3.00;;;1.80;99.90;;;;;;5051298;28;20033;-62
2021/04/12 00:58:55;;;;;;;5.22;2.70;;;1.70;99.90;;;;;;5052112;28;20033;-61
2021/04/12 01:01:49;;;;;;;5.50;2.43;;;1.70;99.90;;;;;;5052061;28;20032;-59
2021/04/12 01:04:31;;;;;;;4.32;2.60;;;1.70;99.90;;;;;;5045938;28;20272;-59
2021/04/12 01:07:22;;;;;;;5.13;2.42;;;1.60;99.90;;;;;;5040052;28;20061;-58
2021/04/12 01:10:09;;;;;;;6.25;3.25;;;1.60;99.90;;;;;;5050256;28;20045;-59
2021/04/12 01:12:59;;;;;;;5.40;3.10;;;1.60;99.90;;;;;;5047567;28;20091;-58
2021/04/12 01:16:03;;;;;;;5.85;3.00;;;1.60;99.90;;;;;;5052341;28;20021;-59
2021/04/12 01:18:37;;;;;;;4.93;2.70;;;1.60;99.90;;;;;;5027279;28;20037;-58
2021/04/12 01:21:36;;;;;;;5.78;3.17;;;1.60;99.90;;;;;;5050731;28;20079;-59
2021/04/12 01:24:32;;;;;;;6.22;3.10;;;1.50;99.90;;;;;;5051279;28;20399;-59
2021/04/12 01:27:16;;;;;;;3.78;3.00;;;1.50;99.90;;;;;;5043805;28;20044;-59
2021/04/12 01:30:19;;;;;;;4.63;3.00;;;1.60;99.90;;;;;;5051679;28;20037;-58
2021/04/12 01:33:40;;;;;;;4.00;2.80;;;1.50;99.90;;;;;;5052031;28;20040;-58
2021/04/12 01:36:23;;;;;;;4.15;2.85;;;1.40;99.90;;;;;;5050137;28;20029;-58
2021/04/12 01:39:02;;;;;;;4.05;2.55;;;1.40;99.90;;;;;;5039056;28;20098;-59
2021/04/12 01:42:01;;;;;;;5.47;2.75;;;1.30;99.90;;;;;;5039881;28;20036;-59
2021/04/12 01:44:39;;;;;;;3.60;2.67;;;1.30;99.90;;;;;;5051382;28;20025;-59
2021/04/12 01:47:14;;;;;;;6.00;3.35;;;1.30;99.90;;;;;;5044856;28;20394;-59
2021/04/12 01:49:48;;;;;;;4.35;2.90;;;1.20;99.90;;;;;;5051657;28;20111;-58
2021/04/12 01:52:51;;;;;;;8.25;3.80;;;1.20;99.90;;;;;;5047361;28;20037;-59
2021/04/12 01:55:53;;;;;;;8.90;3.40;;;1.20;99.90;;;;;;5047190;28;20120;-58
2021/04/12 01:58:21;;;;;;;8.20;3.80;;;1.20;99.90;;;;;;5037964;28;20039;-59
2021/04/12 02:00:53;;;;;;;6.75;3.78;;;1.20;99.90;;;;;;5046143;28;20022;-59
2021/04/12 02:03:38;;;;;;;7.65;4.10;;;1.20;99.90;;;;;;5047807;28;20107;-59
2021/04/12 02:06:15;;;;;;;5.45;3.60;;;1.20;99.90;;;;;;5050310;28;20029;-59
2021/04/12 02:08:56;;;;;;;7.53;3.80;;;1.20;99.90;;;;;;5050091;28;20028;-59
2021/04/12 02:11:33;;;;;;;6.32;3.80;;;1.20;99.90;;;;;;5050173;28;20032;-59
2021/04/12 02:14:21;;;;;;;6.90;4.05;;;1.20;99.90;;;;;;5051590;28;20094;-58
2021/04/12 02:17:15;;;;;;;5.68;3.78;;;1.10;99.90;;;;;;5046828;28;20024;-59
2021/04/12 02:19:45;;;;;;;10.82;3.97;;;1.10;99.90;;;;;;5043985;28;20026;-59
2021/04/12 02:22:29;;;;;;;9.25;4.40;;;1.10;99.90;;;;;;5036438;28;20060;-58
2021/04/12 02:25:24;;;;;;;7.00;4.00;;;1.00;99.90;;;;;;5050548;28;20059;-59
2021/04/12 02:28:06;;;;;;;6.95;4.03;;;1.00;99.90;;;;;;5049628;28;20175;-59
2021/04/12 02:31:09;;;;;;;8.43;4.50;;;1.00;99.90;;;;;;5050935;28;20471;-59
2021/04/12 02:33:51;;;;;;;8.25;4.25;;;0.90;99.90;;;;;;5044660;28;20029;-59
2021/04/12 02:36:37;;;;;;;6.13;3.63;;;0.90;99.90;;;;;;5045191;28;20088;-59
2021/04/12 02:39:22;;;;;;;7.57;4.00;;;0.90;99.90;;;;;;5048703;28;20483;-59
2021/04/12 02:41:51;;;;;;;7.65;3.90;;;0.80;99.90;;;;;;5040259;28;20064;-59
2021/04/12 02:44:19;;;;;;;6.30;3.70;;;0.90;99.90;;;;;;5040682;28;20078;-59
2021/04/12 02:47:08;;;;;;;5.00;3.50;;;0.90;99.90;;;;;;5050341;28;20433;-59
2021/04/12 02:49:49;;;;;;;5.97;3.80;;;0.90;99.90;;;;;;5050492;28;20175;-58
2021/04/12 02:52:24;;;;;;;6.88;3.83;;;0.90;99.90;;;;;;5049478;28;20064;-60
2021/04/12 02:55:27;;;;;;;5.80;3.47;;;0.80;99.90;;;;;;5050163;28;20029;-58
2021/04/12 02:58:14;;;;;;;6.53;3.55;;;0.70;99.90;;;;;;5050424;28;20387;-59
2021/04/12 03:01:17;;;;;;;8.30;4.07;;;0.70;99.90;;;;;;5049882;28;20040;-59
2021/04/12 03:04:18;;;;;;;5.88;3.63;;;0.70;99.90;;;;;;5034724;28;20033;-59
2021/04/12 03:06:49;;;;;;;5.28;3.70;;;0.70;99.90;;;;;;5033561;28;20095;-59
2021/04/12 03:09:37;;;;;;;7.32;3.60;;;0.70;99.90;;;;;;5049551;28;20083;-59
2021/04/12 03:12:11;;;;;;;7.30;3.85;;;0.70;99.90;;;;;;5039028;28;20112;-59
2021/04/12 03:14:43;;;;;;;8.95;3.80;;;0.70;99.90;;;;;;5046425;28;20475;-59
2021/04/12 03:17:08;;;;;;;6.97;3.75;;;0.60;99.90;;;;;;5038294;28;20121;-59
2021/04/12 03:20:19;;;;;;;5.45;3.95;;;0.60;99.90;;;;;;5050706;28;20103;-58
2021/04/12 03:23:00;;;;;;;5.95;3.90;;;0.60;99.90;;;;;;5054069;28;20029;-58
2021/04/12 03:25:34;;;;;;;6.22;4.00;;;0.50;99.90;;;;;;5051506;28;20422;-58
2021/04/12 03:28:22;;;;;;;5.18;3.60;;;0.50;99.90;;;;;;5054089;28;20029;-58
2021/04/12 03:31:32;;;;;;;9.65;4.68;;;0.50;99.90;;;;;;5054316;28;20029;-59
2021/04/12 03:34:25;;;;;;;7.15;4.25;;;0.50;99.90;;;;;;5046748;28;20037;-59
2021/04/12 03:37:10;;;;;;;8.10;4.28;;;0.50;99.90;;;;;;5051479;28;20479;-59
2021/04/12 03:39:44;;;;;;;5.20;4.18;;;0.60;99.90;;;;;;5049952;28;20521;-59
2021/04/12 03:42:17;;;;;;;5.38;4.00;;;0.60;99.90;;;;;;5053903;28;20036;-59
2021/04/12 03:44:46;;;;;;;6.25;3.60;;;0.60;99.90;;;;;;5053749;28;20382;-59
2021/04/12 03:47:36;;;;;;;8.30;4.22;;;0.40;99.90;;;;;;5053221;28;20025;-59
2021/04/12 03:50:13;;;;;;;7.68;4.65;;;0.40;99.90;;;;;;5053434;28;20036;-58
2021/04/12 03:52:44;;;;;;;9.30;5.60;;;0.50;99.90;;;;;;5053386;28;20048;-59
2021/04/12 03:55:47;;;;;;;7.93;4.10;;;0.70;99.90;;;;;;5052662;28;20104;-58
2021/04/12 03:58:52;;;;;;;6.68;4.40;;;0.50;99.90;;;;;;5053870;28;20037;-59
2021/04/12 04:01:51;;;;;;;9.80;5.63;;;0.50;99.90;;;;;;5036512;28;20542;-59
2021/04/12 04:04:48;;;;;;;8.80;4.80;;;0.70;99.90;;;;;;5053143;28;20040;-58
2021/04/12 04:07:22;;;;;;;8.52;4.65;;;0.60;99.90;;;;;;5053799;28;20082;-59
2021/04/12 04:10:16;;;;;;;10.60;4.57;;;0.50;99.90;;;;;;5053335;28;20059;-59
2021/04/12 04:13:14;;;;;;;6.75;4.50;;;0.60;99.90;;;;;;5053010;28;20311;-59
2021/04/12 04:16:11;;;;;;;7.05;4.57;;;0.60;99.90;;;;;;5049829;28;20079;-58
2021/04/12 04:19:03;;;;;;;8.50;4.90;;;0.50;99.90;;;;;;5044293;28;20029;-59
2021/04/12 04:21:49;;;;;;;5.90;4.28;;;0.50;99.90;;;;;;5053005;28;20038;-59
2021/04/12 04:25:03;;;;;;;9.52;5.10;;;0.50;99.90;;;;;;5053208;28;20049;-59
2021/04/12 04:27:46;;;;;;;11.93;5.60;;;0.50;99.90;;;;;;5033875;28;20041;-58
2021/04/12 04:30:24;;;;;;;8.73;5.38;;;0.60;99.90;;;;;;5049340;28;20097;-58
2021/04/12 04:33:17;;;;;;;10.50;6.28;;;0.90;99.90;;;;;;5053203;28;20071;-58
2021/04/12 04:36:18;;;;;;;8.43;5.32;;;1.00;99.90;;;;;;5053213;28;20028;-59
2021/04/12 04:39:21;;;;;;;9.98;5.95;;;0.80;99.90;;;;;;5041772;28;20483;-59
2021/04/12 04:41:55;;;;;;;10.45;5.80;;;0.70;99.90;;;;;;5052603;28;20025;-58
2021/04/12 04:44:37;;;;;;;7.07;4.57;;;0.90;99.90;;;;;;5052509;28;20814;-59
2021/04/12 04:47:26;;;;;;;10.65;6.53;;;0.80;99.90;;;;;;5052405;28;20055;-59
2021/04/12 04:50:12;;;;;;;10.07;6.18;;;0.80;99.90;;;;;;5052598;28;20499;-58
2021/04/12 04:53:10;;;;;;;9.73;5.95;;;0.80;99.90;;;;;;5042953;28;20116;-59
2021/04/12 04:55:50;;;;;;;11.32;6.35;;;0.90;99.90;;;;;;5052533;28;20037;-58
2021/04/12 04:58:44;;;;;;;10.57;5.93;;;1.00;99.90;;;;;;5052282;28;20135;-58
2021/04/12 05:01:33;;;;;;;10.20;6.30;;;1.10;99.90;;;;;;5042016;28;20044;-58
2021/04/12 05:04:11;;;;;;;9.95;6.13;;;1.20;99.90;;;;;;5052085;28;20242;-58
2021/04/12 05:07:01;;;;;;;13.00;5.47;;;1.20;99.90;;;;;;5051943;28;20529;-59
2021/04/12 05:09:32;;;;;;;10.02;6.10;;;1.20;99.90;;;;;;5042855;28;20028;-58
2021/04/12 05:12:09;;;;;;;10.35;5.57;;;1.30;99.90;;;;;;5050255;28;20036;-58
2021/04/12 05:15:13;;;;;;;12.63;6.40;;;1.30;99.90;;;;;;5042635;28;20486;-58
2021/04/12 05:17:45;;;;;;;9.13;5.85;;;1.30;99.90;;;;;;5049391;28;20033;-59
2021/04/12 05:20:25;;;;;;;11.15;6.38;;;1.30;99.90;;;;;;5052147;28;20497;-59
2021/04/12 05:23:19;;;;;;;9.48;5.93;;;1.40;99.90;;;;;;5051022;28;20044;-59
2021/04/12 05:26:22;;;;;;;10.63;6.05;;;1.30;99.90;;;;;;5048237;28;20081;-58
2021/04/12 05:28:57;;;;;;;12.60;6.82;;;1.40;99.90;;;;;;5051500;28;20033;-59
2021/04/12 05:31:44;;;;;;;10.75;6.10;;;1.40;99.90;;;;;;5051628;28;20037;-58
2021/04/12 05:34:39;;;;;;;11.52;6.75;;;1.50;99.90;;;;;;5050979;28;20082;-59
2021/04/12 05:37:06;;;;;;;12.85;6.78;;;1.50;99.90;;;;;;5048814;28;20032;-59
2021/04/12 05:40:09;;;;;;;11.18;6.80;;;1.50;99.90;;;;;;5050355;28;20372;-59
2021/04/12 05:43:05;;;;;;;13.35;6.88;;;1.50;99.90;;;;;;5050550;28;20037;-59
2021/04/12 05:45:51;;;;;;;11.00;6.22;;;1.50;99.90;;;;;;5041446;28;20112;-58
2021/04/12 05:48:29;;;;;;;12.32;6.55;;;1.60;99.90;;;;;;5050555;28;20111;-58
2021/04/12 05:51:41;;;;;;;9.68;5.80;;;1.80;99.90;;;;;;5051670;28;20040;-58
2021/04/12 05:54:32;;;;;;;13.70;6.30;;;1.90;99.90;;;;;;5027910;28;20231;-59
2021/04/12 05:57:16;;;;;;;8.70;5.30;;;1.90;99.90;;;;;;5014451;28;20533;-59
2021/04/12 05:59:48;;;;;;;10.00;5.50;;;2.00;99.90;;;;;;5030988;28;20041;-58
2021/04/12 06:02:24;;;;;;;9.80;5.70;;;2.00;99.90;;;;;;5045439;28;20029;-58
2021/04/12 06:04:55;;;;;;;7.97;4.70;;;2.20;99.90;;;;;;5044640;28;20036;-59
2021/04/12 06:08:01;;;;;;;11.60;5.63;;;2.20;99.90;;;;;;5050538;28;20780;-58
2021/04/12 06:10:50;;;;;;;;;;;2.20;99.90;;;;;;5046003;28;20040;-59
2021/04/12 06:13:22;;;;;;;11.70;6.15;;;2.20;99.90;;;;;;5047681;28;19916;-58
2021/04/12 06:16:25;;;;;;;12.52;5.75;;;2.20;99.90;;;;;;5041220;28;20028;-59
2021/04/12 06:19:18;;;;;;;12.90;6.35;;;2.20;99.90;;;;;;5046681;28;20036;-59
2021/04/12 06:22:11;;;;;;;10.73;5.55;;;2.30;99.90;;;;;;5050693;28;20036;-61
2021/04/12 06:25:14;;;;;;;12.10;5.43;;;2.40;99.90;;;;;;5048916;28;20044;-58
2021/04/12 06:28:21;;;;;;;11.85;5.80;;;2.60;99.90;;;;;;5046802;28;20048;-60
2021/04/12 06:31:22;;;;;;;10.70;5.28;;;2.70;99.90;;;;;;5021262;28;20491;-58
2021/04/12 06:34:12;;;;;;;10.48;5.65;;;2.70;99.90;;;;;;5026681;28;20037;-61
2021/04/12 06:36:54;;;;;;;11.10;5.43;;;2.70;99.90;;;;;;5045138;28;20047;-58
2021/04/12 06:39:35;;;;;;;9.77;5.82;;;2.70;99.90;;;;;;5046471;28;20438;-61
2021/04/12 06:42:23;;;;;;;8.80;4.38;;;2.80;99.90;;;;;;5050126;28;20060;-60
2021/04/12 06:45:07;;;;;;;8.25;4.90;;;2.90;99.90;;;;;;5043676;28;20435;-60
2021/04/12 06:48:09;;;;;;;15.27;5.35;;;2.90;99.90;;;;;;5035048;28;20068;-58
2021/04/12 06:50:56;;;;;;;12.70;5.57;;;2.80;99.90;;;;;;5041134;28;20094;-60
2021/04/12 06:53:50;;;;;;;12.15;5.40;;;2.80;99.90;;;;;;5049671;28;20037;-59
2021/04/12 06:56:18;;;;;;;14.82;5.55;;;2.80;99.90;;;;;;5049670;28;20033;-58
2021/04/12 06:59:09;;;;;;;8.68;4.97;;;3.00;99.90;;;;;;5045230;28;20035;-61
2021/04/12 07:01:44;;;;;;;8.55;4.40;;;3.10;99.90;;;;;;5050278;28;20463;-58
2021/04/12 07:04:52;;;;;;;9.75;3.75;;;3.20;99.90;;;;;;5050398;28;20078;-59
2021/04/12 07:08:05;;;;;;;7.25;3.85;;;3.30;99.90;;;;;;5048998;28;20055;-59
2021/04/12 07:11:03;;;;;;;10.18;4.38;;;3.40;99.90;;;;;;5050038;28;20033;-59
2021/04/12 07:13:53;;;;;;;13.05;4.85;;;3.60;99.90;;;;;;5047598;28;20037;-59
2021/04/12 07:16:33;;;;;;;10.43;4.60;;;3.80;99.90;;;;;;5049918;28;20040;-59
2021/04/12 07:19:39;;;;;;;8.32;4.00;;;3.90;99.90;;;;;;5049886;28;20044;-59
2021/04/12 07:22:35;;;;;;;12.93;5.22;;;4.00;99.90;;;;;;5047574;28;20075;-59
2021/04/12 07:25:09;;;;;;;9.02;3.90;;;4.10;99.90;;;;;;5044186;28;20053;-60
2021/04/12 07:27:47;;;;;;;8.55;3.88;;;4.20;99.90;;;;;;5049536;28;20165;-60
2021/04/12 07:30:43;;;;;;;12.98;4.32;;;4.30;99.90;;;;;;5047591;28;20036;-59
2021/04/12 07:33:18;;;;;;;9.52;4.28;;;4.50;99.90;;;;;;5050081;28;20044;-59
2021/04/12 07:36:11;;;;;;;11.20;3.53;;;4.70;99.90;;;;;;5047044;28;20021;-60
2021/04/12 07:39:14;;;;;;;10.30;5.78;;;4.90;99.90;;;;;;5050696;28;20087;-60
2021/04/12 07:42:14;;;;;;;14.57;8.18;;;4.80;99.90;;;;;;5048147;28;20464;-60
2021/04/12 07:45:16;;;;;;;15.75;9.50;;;5.20;99.90;;;;;;5043830;28;20033;-60
2021/04/12 07:48:06;;;;;;;15.80;7.45;;;5.60;99.90;;;;;;5045416;28;20833;-60
2021/04/12 07:51:01;;;;;;;7.78;5.00;;;5.80;99.90;;;;;;5045851;28;20077;-60
2021/04/12 07:53:50;;;;;;;9.40;4.60;;;6.00;99.90;;;;;;5049619;28;20028;-59
2021/04/12 07:56:37;;;;;;;9.00;4.32;;;5.90;99.90;;;;;;5046325;28;20040;-60
2021/04/12 07:59:31;;;;;;;9.93;6.15;;;5.80;99.90;;;;;;5043136;28;20049;-60
2021/04/12 08:02:44;;;;;;;8.27;4.63;;;5.90;99.90;;;;;;5039986;28;20052;-60
2021/04/12 08:05:35;;;;;;;13.98;8.48;;;5.90;99.90;;;;;;4998265;28;20054;-60
2021/04/12 08:08:19;;;;;;;15.45;4.00;;;5.90;99.90;;;;;;5052503;28;20410;-60
2021/04/12 08:11:38;;;;;;;11.35;5.38;;;5.90;99.90;;;;;;5051467;28;20048;-60
2021/04/12 08:14:45;;;;;;;12.18;5.50;;;5.80;99.90;;;;;;5051042;28;20059;-60
2021/04/12 08:17:37;;;;;;;15.13;5.70;;;5.90;99.90;;;;;;5032875;28;20056;-61
2021/04/12 08:20:30;;;;;;;33.95;11.48;;;5.70;99.90;;;;;;5052568;28;20033;-60
2021/04/12 08:23:17;;;;;;;17.70;6.65;;;5.80;99.90;;;;;;5052611;28;20029;-60
2021/04/12 08:26:02;;;;;;;11.35;3.50;;;6.00;99.90;;;;;;5051572;28;20045;-60
2021/04/12 08:29:01;;;;;;;11.32;4.63;;;6.50;99.90;;;;;;5051603;28;20041;-60
2021/04/12 08:31:35;;;;;;;20.98;6.28;;;7.00;99.90;;;;;;5046023;28;20207;-60
2021/04/12 08:34:06;;;;;;;42.53;4.80;;;7.20;99.90;;;;;;5051511;28;20029;-60
2021/04/12 08:36:50;;;;;;;47.92;5.03;;;7.40;99.90;;;;;;5052981;28;20033;-60
2021/04/12 08:39:37;;;;;;;17.02;3.67;;;7.60;99.90;;;;;;5043407;28;20558;-61
2021/04/12 08:42:20;;;;;;;39.67;5.18;;;7.90;99.90;;;;;;5051688;28;20479;-60
2021/04/12 08:45:11;;;;;;;83.93;7.13;;;7.90;99.90;;;;;;5049485;28;20040;-60
2021/04/12 08:48:00;;;;;;;79.32;6.32;;;8.00;99.90;;;;;;5051097;28;20106;-61
2021/04/12 08:50:40;;;;;;;106.88;8.18;;;8.10;99.90;;;;;;5051490;28;20093;-60
2021/04/12 08:53:37;;;;;;;88.45;7.65;;;8.10;99.90;;;;;;5050602;28;20045;-59
2021/04/12 08:56:23;;;;;;;41.17;4.32;;;7.80;99.90;;;;;;5044985;28;20056;-60
2021/04/12 08:59:08;;;;;;;49.50;4.95;;;7.70;99.90;;;;;;5051975;28;20060;-59
2021/04/12 09:02:04;;;;;;;23.00;3.65;;;7.80;99.90;;;;;;5051826;28;20383;-59
2021/04/12 09:05:00;;;;;;;100.15;5.90;;;8.10;99.90;;;;;;5051585;28;20025;-59
2021/04/12 09:07:39;;;;;;;46.60;5.38;;;8.20;99.90;;;;;;5052080;28;20033;-60
2021/04/12 09:10:41;;;;;;;123.95;8.25;;;8.40;99.90;;;;;;5048145;28;20025;-59
2021/04/12 09:13:38;;;;;;;38.22;4.63;;;8.60;99.90;;;;;;5047374;28;20036;-59
2021/04/12 09:16:38;;;;;;;179.48;10.77;;;9.20;99.90;;;;;;5050817;28;20033;-58
2021/04/12 09:19:29;;;;;;;47.35;4.57;;;9.30;99.90;;;;;;5043662;28;20441;-54
2021/04/12 09:21:57;;;;;;;11.18;2.55;;;9.00;99.90;;;;;;5049784;28;20044;-56
2021/04/12 09:24:32;;;;;;;73.13;5.93;;;8.60;99.90;;;;;;5050302;28;20037;-56
2021/04/12 09:27:03;;;;;;;207.38;14.18;;;8.30;99.90;;;;;;5050346;28;20037;-58
2021/04/12 09:29:51;;;;;;;52.20;4.85;;;8.20;99.90;;;;;;5050792;28;20033;-55
2021/04/12 09:32:45;;;;;;;169.30;10.75;;;8.50;99.90;;;;;;5044952;28;20048;-54
2021/04/12 09:35:47;;;;;;;81.75;6.82;;;8.90;99.90;;;;;;5048748;28;20402;-50
2021/04/12 09:38:50;;;;;;;86.10;6.80;;;9.10;99.90;;;;;;5046135;28;20033;-53
2021/04/12 09:41:53;;;;;;;94.05;8.18;;;9.40;99.90;;;;;;5043905;28;20029;-52
2021/04/12 09:44:43;;;;;;;16.17;3.17;;;9.30;99.90;;;;;;5041417;28;20037;-55
2021/04/12 09:47:31;;;;;;;109.65;9.25;;;9.20;99.90;;;;;;5050505;28;20445;-56
2021/04/12 09:50:21;;;;;;;140.35;10.32;;;9.50;99.90;;;;;;5051664;28;20467;-58
2021/04/12 09:53:25;;;;;;;30.88;4.30;;;9.80;99.90;;;;;;5051938;28;20025;-57
2021/04/12 09:56:21;;;;;;;52.00;4.57;;;10.10;99.90;;;;;;5048417;28;20068;-53
2021/04/12 09:58:59;;;;;;;63.15;5.65;;;9.50;99.90;;;;;;5051558;28;20040;-56
2021/04/12 10:01:47;;;;;;;15.80;2.78;;;9.10;99.90;;;;;;5051705;28;20122;-54
2021/04/12 10:04:50;;;;;;;76.60;6.20;;;8.80;99.90;;;;;;5051367;28;20060;-56
2021/04/12 10:07:55;;;;;;;51.47;5.18;;;8.60;99.90;;;;;;5051269;28;20060;-58
2021/04/12 10:10:49;;;;;;;51.65;4.90;;;9.20;99.90;;;;;;5051274;28;20039;-55
2021/04/12 10:13:37;;;;;;;24.67;2.50;;;9.50;99.90;;;;;;5049915;28;20045;-55
2021/04/12 10:16:24;;;;;;;42.72;5.97;;;9.60;99.90;;;;;;5051207;28;20772;-57
2021/04/12 10:19:02;;;;;;;91.82;7.68;;;9.60;99.90;;;;;;5078186;28;20044;-53
2021/04/12 10:21:51;;;;;;;54.33;5.00;;;9.80;99.90;;;;;;5051751;28;20108;-57
2021/04/12 10:24:56;;;;;;;97.75;7.80;;;10.20;99.90;;;;;;5050791;28;20075;-54
2021/04/12 10:27:33;;;;;;;145.43;11.45;;;10.30;99.90;;;;;;5050838;28;20032;-54
2021/04/12 10:30:23;;;;;;;101.55;9.68;;;9.70;99.90;;;;;;5050447;28;20135;-55
2021/04/12 10:32:59;;;;;;;6.03;1.73;;;9.70;99.90;;;;;;5051086;28;20068;-56
2021/04/12 10:35:37;;;;;;;13.05;2.10;;;9.90;99.90;;;;;;5051086;28;20032;-55
2021/04/12 10:38:15;;;;;;;8.88;1.85;;;9.80;99.90;;;;;;5050941;28;20430;-55
2021/04/12 10:40:45;;;;;;;29.65;3.45;;;9.80;99.90;;;;;;5050916;28;20056;-59
2021/04/12 10:43:24;;;;;;;33.38;4.43;;;9.50;99.90;;;;;;5050975;28;20057;-56
2021/04/12 10:46:00;;;;;;;58.65;15.32;;;9.60;99.90;;;;;;5050923;28;20040;-56
2021/04/12 10:48:49;;;;;;;90.72;12.50;;;9.80;99.90;;;;;;5050285;28;20029;-56
2021/04/12 10:51:29;;;;;;;53.90;10.98;;;10.00;99.90;;;;;;5051200;28;20029;-57
2021/04/12 10:54:22;;;;;;;23.85;3.00;;;10.30;99.90;;;;;;5050823;28;20434;-58
2021/04/12 10:57:00;;;;;;;20.17;2.47;;;10.50;99.90;;;;;;5050412;28;20475;-55
2021/04/12 10:59:34;;;;;;;33.90;3.63;;;10.30;99.90;;;;;;5050805;28;20493;-56
2021/04/12 11:02:07;;;;;;;17.88;2.30;;;9.80;99.60;;;;;;5050950;28;20052;-56
2021/04/12 11:04:54;;;;;;;11.75;1.83;;;9.50;99.90;;;;;;5051146;28;20046;-57
2021/04/12 11:07:32;;;;;;;35.38;4.00;;;9.60;99.90;;;;;;5050920;28;20036;-56
2021/04/12 11:10:20;;;;;;;36.75;3.65;;;9.50;99.90;;;;;;5049955;28;20044;-58
2021/04/12 11:13:16;;;;;;;21.83;2.75;;;9.70;99.90;;;;;;5043500;28;20117;-56
2021/04/12 11:16:05;;;;;;;53.05;5.95;;;9.80;99.90;;;;;;5043430;28;20479;-57
2021/04/12 11:18:43;;;;;;;39.92;3.72;;;10.30;99.90;;;;;;5050070;28;20435;-56
2021/04/12 11:21:26;;;;;;;8.25;1.73;;;10.40;99.90;;;;;;5049939;28;20028;-57
2021/04/12 11:24:15;;;;;;;45.50;4.07;;;10.40;98.30;;;;;;5041434;28;20064;-56
2021/04/12 11:27:18;;;;;;;20.95;2.72;;;10.00;97.40;;;;;;5034921;28;20048;-55
2021/04/12 11:30:03;;;;;;;17.30;2.38;;;9.80;98.70;;;;;;5049307;28;20036;-58
2021/04/12 11:32:53;;;;;;;4.82;1.60;;;9.80;97.70;;;;;;5047683;28;20033;-56
2021/04/12 11:36:05;;;;;;;14.65;2.00;;;9.90;99.20;;;;;;5041373;28;20021;-54
2021/04/12 11:38:58;;;;;;;5.68;1.58;;;10.20;98.80;;;;;;5025405;28;20140;-55
2021/04/12 11:41:29;;;;;;;10.48;2.20;;;10.30;98.30;;;;;;5053172;28;20925;-56
2021/04/12 11:44:00;;;;;;;17.83;2.65;;;10.50;98.00;;;;;;5052602;28;20036;-58
2021/04/12 11:46:34;;;;;;;34.80;2.95;;;10.40;96.40;;;;;;5052494;28;20063;-57
2021/04/12 11:49:39;;;;;;;14.90;2.60;;;10.40;95.80;;;;;;5047788;28;20083;-52
2021/04/12 11:52:17;;;;;;;9.65;1.80;;;10.30;97.60;;;;;;5050842;28;20506;-55
2021/04/12 11:54:56;;;;;;;48.00;4.55;;;10.40;97.70;;;;;;5054086;28;20527;-55
2021/04/12 11:57:36;;;;;;;5.80;1.75;;;10.70;98.00;;;;;;5053355;28;20057;-54
2021/04/12 12:00:55;;;;;;;40.67;3.63;;;10.70;97.60;;;;;;5053413;28;20103;-56
2021/04/12 12:03:44;;;;;;;3.50;1.50;;;10.30;98.10;;;;;;5050173;28;20045;-57
2021/04/12 12:06:30;;;;;;;3.35;1.30;;;10.20;97.50;;;;;;5053068;28;20115;-53
2021/04/12 12:09:00;;;;;;;26.63;3.28;;;9.90;96.90;;;;;;5062777;28;20072;-57
2021/04/12 12:11:28;;;;;;;21.08;3.30;;;9.80;96.50;;;;;;5066208;28;20037;-55
2021/04/12 12:14:18;;;;;;;23.80;2.63;;;10.10;96.20;;;;;;5054062;28;20033;-56
2021/04/12 12:16:44;;;;;;;38.25;3.90;;;10.50;94.70;;;;;;5034774;28;20064;-54
2021/04/12 12:19:35;;;;;;;8.95;2.03;;;10.80;95.20;;;;;;5053150;28;20036;-58
2021/04/12 12:22:27;;;;;;;28.13;3.50;;;10.90;96.50;;;;;;5052953;28;20024;-57
2021/04/12 12:25:01;;;;;;;52.35;5.82;;;11.00;96.20;;;;;;5044773;28;20057;-55
2021/04/12 12:27:48;;;;;;;19.27;3.55;;;10.90;96.10;;;;;;5051518;28;20049;-57
2021/04/12 12:30:26;;;;;;;23.15;3.95;;;11.00;94.50;;;;;;5044175;28;20075;-55
2021/04/12 12:33:09;;;;;;;7.65;2.25;;;11.10;93.80;;;;;;5050092;28;20033;-54
2021/04/12 12:35:54;;;;;;;3.83;2.22;;;11.20;92.70;;;;;;5052135;28;20402;-58
2021/04/12 12:38:29;;;;;;;14.93;2.60;;;10.80;94.70;;;;;;5048360;28;20067;-54
2021/04/12 12:40:59;;;;;;;45.30;12.02;;;10.50;95.80;;;;;;5046804;28;20387;-57
2021/04/12 12:43:32;;;;;;;39.53;7.50;;;10.40;95.30;;;;;;5052429;28;20033;-54
2021/04/12 12:46:11;;;;;;;18.95;4.53;;;10.70;94.90;;;;;;5052661;28;20119;-54
2021/04/12 12:48:49;;;;;;;6.28;2.40;;;10.90;95.10;;;;;;5052475;28;20433;-52
2021/04/12 12:51:30;;;;;;;5.85;2.20;;;11.00;93.50;;;;;;5051685;28;20029;-58
2021/04/12 12:54:17;;;;;;;5.75;2.25;;;11.00;94.30;;;;;;5052475;28;20078;-57
2021/04/12 12:56:45;;;;;;;9.32;2.78;;;11.00;94.00;;;;;;5052027;28;20033;-56
2021/04/12 12:59:32;;;;;;;15.45;3.15;;;11.10;94.80;;;;;;5053324;28;20112;-54
2021/04/12 13:02:13;;;;;;;9.43;2.63;;;10.80;94.50;;;;;;5051754;28;20032;-58
2021/04/12 13:04:39;;;;;;;6.53;2.70;;;10.60;95.30;;;;;;5046975;28;20017;-54
2021/04/12 13:07:19;;;;;;;6.85;2.10;;;10.30;94.70;;;;;;5050554;28;20127;-53
2021/04/12 13:10:02;;;;;;;10.02;2.00;;;10.00;93.20;;;;;;5041411;28;20044;-55
2021/04/12 13:12:37;;;;;;;12.65;2.17;;;10.00;93.10;;;;;;5051845;28;20887;-52
2021/04/12 13:15:34;;;;;;;5.70;1.65;;;10.10;91.90;;;;;;5047396;28;20079;-54
2021/04/12 13:18:15;;;;;;;30.17;3.20;;;10.30;92.20;;;;;;5048097;28;20156;-53
2021/04/12 13:21:12;;;;;;;34.67;4.15;;;10.30;92.70;;;;;;5051861;28;20041;-57
2021/04/12 13:23:44;;;;;;;9.07;1.90;;;9.90;93.00;;;;;;5048520;28;20410;-58
2021/04/12 13:26:46;;;;;;;8.13;2.10;;;9.70;93.90;;;;;;5051566;28;20726;-56
2021/04/12 13:29:24;;;;;;;2.85;1.52;;;9.80;93.50;;;;;;5047637;28;20111;-56
2021/04/12 13:31:54;;;;;;;5.55;1.80;;;10.10;93.20;;;;;;5052041;28;20083;-57
2021/04/12 13:34:27;;;;;;;14.63;2.63;;;10.40;93.30;;;;;;5049531;28;20064;-54
2021/04/12 13:37:09;;;;;;;6.95;2.47;;;10.60;91.90;;;;;;5050713;28;20105;-53
2021/04/12 13:39:45;;;;;;;15.27;2.92;;;10.90;92.00;;;;;;5050053;28;20119;-56
2021/04/12 13:42:19;;;;;;;8.95;1.80;;;11.10;91.70;;;;;;5051452;28;20040;-57
2021/04/12 13:45:01;;;;;;;7.82;2.35;;;11.00;90.90;;;;;;5050550;28;20083;-58
2021/04/12 13:47:52;;;;;;;4.20;1.10;;;11.20;90.20;;;;;;5039672;28;20037;-56
2021/04/12 13:50:38;;;;;;;5.90;1.50;;;11.20;88.10;;;;;;5051034;28;20114;-55
2021/04/12 13:53:14;;;;;;;21.15;4.90;;;11.10;89.60;;;;;;5043545;28;20048;-54
2021/04/12 13:56:11;;;;;;;25.42;6.40;;;11.20;91.00;;;;;;5050754;28;20040;-55
2021/04/12 13:58:48;;;;;;;10.95;2.72;;;11.60;90.90;;;;;;5050981;28;20036;-54
2021/04/12 14:01:21;;;;;;;14.13;3.50;;;11.80;91.30;;;;;;5047311;28;20114;-54
2021/04/12 14:04:10;;;;;;;21.20;3.38;;;11.70;90.60;;;;;;5050489;28;20067;-54
2021/04/12 14:06:54;;;;;;;33.67;3.20;;;11.60;91.20;;;;;;5047575;28;20053;-58
2021/04/12 14:09:47;;;;;;;14.70;2.15;;;11.40;89.10;;;;;;5049123;28;20045;-52
2021/04/12 14:12:24;;;;;;;25.05;2.80;;;11.40;89.60;;;;;;5050513;28;20502;-56
2021/04/12 14:15:00;;;;;;;7.85;1.60;;;11.40;90.30;;;;;;5051173;28;20390;-56
2021/04/12 14:17:27;;;;;;;8.70;1.65;;;11.40;86.60;;;;;;5050435;28;20037;-57
2021/04/12 14:20:04;;;;;;;10.95;2.25;;;11.20;87.60;;;;;;5051320;28;20037;-54
2021/04/12 14:22:34;;;;;;;14.15;2.03;;;11.20;90.00;;;;;;5047482;28;20531;-55
2021/04/12 14:25:41;;;;;;;12.73;1.70;;;11.20;90.50;;;;;;5049944;28;20060;-56
2021/04/12 14:28:21;;;;;;;31.52;3.17;;;11.20;91.00;;;;;;5008562;28;20033;-57